SAS434 EKCH-ESGG
Flight info
| Callsign | SAS434 |
|---|---|
| Flight time | 0h 32m |
| Altitude | 22000 |
| Route | VEDAR L997 RISMA |
| Aircraft | A320/M-SDE3FGHIRWY/LB1 |
Departure
| Time | 2026-05-04 07:30 |
|---|---|
| Airport | Copenhagen Kastrup Airport (EKCH) |
Arrival
| Time | 2026-05-04 08:02 |
|---|---|
| Airport | Göteborg Landvetter Airport (ESGG) |
| Time | Latitude | Longitude | Altitude | Speed | Heading |
|---|---|---|---|---|---|
| 2026-05-04 07:01 | 55.62722 | 12.64093 | 24 ft | 0 kts | 33° |
| 2026-05-04 07:19 | 55.62720 | 12.64091 | 24 ft | 2 kts | 33° |
| 2026-05-04 07:19 | 55.62705 | 12.64074 | 24 ft | 4 kts | 33° |
| 2026-05-04 07:19 | 55.62683 | 12.64048 | 27 ft | 4 kts | 40° |
| 2026-05-04 07:19 | 55.62670 | 12.64019 | 25 ft | 4 kts | 105° |
| 2026-05-04 07:20 | 55.62678 | 12.63993 | 26 ft | 1 kts | 123° |
| 2026-05-04 07:20 | 55.62678 | 12.63991 | 26 ft | 0 kts | 123° |
| 2026-05-04 07:26 | 55.62456 | 12.64377 | 24 ft | 13 kts | 128° |
| 2026-05-04 07:27 | 55.62393 | 12.64448 | 25 ft | 11 kts | 186° |
| 2026-05-04 07:27 | 55.62310 | 12.64410 | 23 ft | 14 kts | 195° |
| 2026-05-04 07:27 | 55.62203 | 12.64348 | 23 ft | 18 kts | 204° |
| 2026-05-04 07:27 | 55.62086 | 12.64247 | 24 ft | 20 kts | 205° |
| 2026-05-04 07:28 | 55.61954 | 12.64139 | 26 ft | 19 kts | 205° |
| 2026-05-04 07:28 | 55.61850 | 12.64070 | 24 ft | 16 kts | 187° |
| 2026-05-04 07:28 | 55.61732 | 12.64083 | 26 ft | 18 kts | 175° |
| 2026-05-04 07:28 | 55.61645 | 12.64088 | 27 ft | 9 kts | 190° |
| 2026-05-04 07:29 | 55.61583 | 12.64005 | 26 ft | 17 kts | 221° |
| 2026-05-04 07:29 | 55.61345 | 12.63635 | 26 ft | 80 kts | 221° |
| 2026-05-04 07:29 | 55.60770 | 12.62744 | 26 ft | 137 kts | 221° |
| 2026-05-04 07:29 | 55.59946 | 12.61472 | 265 ft | 163 kts | 226° |
| 2026-05-04 07:30 | 55.59089 | 12.60171 | 1027 ft | 161 kts | 226° |
| 2026-05-04 07:30 | 55.58231 | 12.58849 | 1601 ft | 171 kts | 226° |
| 2026-05-04 07:30 | 55.57295 | 12.57385 | 1906 ft | 193 kts | 226° |
| 2026-05-04 07:30 | 55.56297 | 12.55589 | 2284 ft | 214 kts | 244° |
| 2026-05-04 07:31 | 55.56008 | 12.52973 | 2731 ft | 231 kts | 278° |
| 2026-05-04 07:31 | 55.56267 | 12.50095 | 3564 ft | 241 kts | 281° |
| 2026-05-04 07:33 | 55.65807 | 12.39436 | 9851 ft | 284 kts | 345° |
| 2026-05-04 07:33 | 55.67808 | 12.38838 | 10314 ft | 303 kts | 344° |
| 2026-05-04 07:33 | 55.69937 | 12.38188 | 10568 ft | 325 kts | 345° |
| 2026-05-04 07:33 | 55.72220 | 12.37489 | 11048 ft | 338 kts | 345° |
| 2026-05-04 07:34 | 55.74561 | 12.36778 | 11724 ft | 344 kts | 345° |
| 2026-05-04 07:34 | 55.76937 | 12.36063 | 12444 ft | 348 kts | 345° |
| 2026-05-04 07:34 | 55.79342 | 12.35342 | 13174 ft | 353 kts | 344° |
| 2026-05-04 07:34 | 55.81778 | 12.34606 | 13885 ft | 357 kts | 344° |
| 2026-05-04 07:35 | 55.84212 | 12.33863 | 14534 ft | 361 kts | 344° |
| 2026-05-04 07:35 | 55.86707 | 12.33095 | 15177 ft | 366 kts | 344° |
| 2026-05-04 07:35 | 55.89226 | 12.32317 | 15810 ft | 370 kts | 344° |
| 2026-05-04 07:35 | 55.91777 | 12.31528 | 16427 ft | 374 kts | 343° |
| 2026-05-04 07:36 | 55.94360 | 12.30733 | 17055 ft | 378 kts | 343° |
| 2026-05-04 07:36 | 55.96968 | 12.29930 | 17717 ft | 383 kts | 344° |
| 2026-05-04 07:38 | 56.15983 | 12.24045 | 21728 ft | 409 kts | 343° |
| 2026-05-04 07:38 | 56.18795 | 12.23171 | 21848 ft | 414 kts | 343° |
| 2026-05-04 07:38 | 56.21639 | 12.22278 | 21864 ft | 424 kts | 344° |
| 2026-05-04 07:38 | 56.24562 | 12.21361 | 21887 ft | 427 kts | 344° |
| 2026-05-04 07:39 | 56.27490 | 12.20449 | 21856 ft | 426 kts | 344° |
| 2026-05-04 07:39 | 56.30412 | 12.19540 | 21863 ft | 426 kts | 344° |
| 2026-05-04 07:39 | 56.33326 | 12.18632 | 21862 ft | 426 kts | 344° |
| 2026-05-04 07:39 | 56.36246 | 12.17720 | 21857 ft | 426 kts | 344° |
| 2026-05-04 07:40 | 56.39172 | 12.16800 | 21857 ft | 426 kts | 344° |
| 2026-05-04 07:40 | 56.42091 | 12.15879 | 21861 ft | 425 kts | 344° |
| 2026-05-04 07:40 | 56.45003 | 12.14956 | 21854 ft | 424 kts | 344° |
| 2026-05-04 07:40 | 56.47900 | 12.14036 | 21853 ft | 424 kts | 344° |
| 2026-05-04 07:41 | 56.50773 | 12.13124 | 21851 ft | 424 kts | 344° |
| 2026-05-04 07:41 | 56.53674 | 12.12203 | 21881 ft | 424 kts | 345° |
| 2026-05-04 07:41 | 56.56582 | 12.11329 | 21882 ft | 424 kts | 345° |
| 2026-05-04 07:41 | 56.59499 | 12.10511 | 21870 ft | 424 kts | 346° |
| 2026-05-04 07:42 | 56.62421 | 12.09721 | 21867 ft | 424 kts | 346° |
| 2026-05-04 07:42 | 56.65339 | 12.08933 | 21865 ft | 424 kts | 346° |
| 2026-05-04 07:42 | 56.68261 | 12.08135 | 21866 ft | 423 kts | 346° |
| 2026-05-04 07:42 | 56.71177 | 12.07325 | 21853 ft | 423 kts | 346° |
| 2026-05-04 07:43 | 56.74092 | 12.06505 | 21858 ft | 423 kts | 346° |
| 2026-05-04 07:43 | 56.77004 | 12.05674 | 21859 ft | 423 kts | 345° |
| 2026-05-04 07:43 | 56.79873 | 12.04853 | 21866 ft | 423 kts | 345° |
| 2026-05-04 07:43 | 56.82786 | 12.04021 | 21880 ft | 423 kts | 345° |
| 2026-05-04 07:44 | 56.85689 | 12.03195 | 21870 ft | 422 kts | 345° |
| 2026-05-04 07:44 | 56.88598 | 12.02370 | 21868 ft | 422 kts | 345° |
| 2026-05-04 07:44 | 56.91507 | 12.01542 | 21858 ft | 422 kts | 345° |
| 2026-05-04 07:44 | 56.94410 | 12.00716 | 21856 ft | 422 kts | 345° |
| 2026-05-04 07:45 | 56.97268 | 11.99909 | 21838 ft | 409 kts | 345° |
| 2026-05-04 07:45 | 57.00065 | 11.99117 | 21842 ft | 405 kts | 345° |
| 2026-05-04 07:45 | 57.02846 | 11.98324 | 21829 ft | 404 kts | 345° |
| 2026-05-04 07:45 | 57.05665 | 11.97868 | 21399 ft | 410 kts | 353° |
| 2026-05-04 07:46 | 57.08551 | 11.97787 | 20513 ft | 417 kts | 354° |
| 2026-05-04 07:46 | 57.11406 | 11.97777 | 19877 ft | 415 kts | 354° |
| 2026-05-04 07:46 | 57.14286 | 11.97801 | 19293 ft | 412 kts | 355° |
| 2026-05-04 07:46 | 57.17148 | 11.97829 | 18756 ft | 409 kts | 355° |
| 2026-05-04 07:47 | 57.19982 | 11.97845 | 18244 ft | 405 kts | 355° |
| 2026-05-04 07:47 | 57.22794 | 11.97849 | 17678 ft | 402 kts | 355° |
| 2026-05-04 07:47 | 57.25576 | 11.97844 | 17099 ft | 398 kts | 355° |
| 2026-05-04 07:49 | 57.44045 | 11.97751 | 11911 ft | 359 kts | 355° |
| 2026-05-04 07:49 | 57.46530 | 11.97741 | 11386 ft | 355 kts | 355° |
| 2026-05-04 07:49 | 57.48982 | 11.97737 | 10854 ft | 350 kts | 355° |
| 2026-05-04 07:50 | 57.51405 | 11.97732 | 10361 ft | 346 kts | 355° |
| 2026-05-04 07:50 | 57.53740 | 11.97779 | 10210 ft | 334 kts | 360° |
| 2026-05-04 07:50 | 57.55992 | 11.98547 | 10085 ft | 326 kts | 12° |
| 2026-05-04 07:50 | 57.58060 | 12.00164 | 9958 ft | 319 kts | 24° |
| 2026-05-04 07:51 | 57.59991 | 12.02062 | 9836 ft | 308 kts | 23° |
| 2026-05-04 07:51 | 57.61865 | 12.03903 | 9662 ft | 300 kts | 23° |
| 2026-05-04 07:51 | 57.63682 | 12.05686 | 9542 ft | 288 kts | 22° |
| 2026-05-04 07:51 | 57.65428 | 12.07399 | 9097 ft | 280 kts | 22° |
| 2026-05-04 07:52 | 57.67144 | 12.09079 | 8552 ft | 277 kts | 22° |
| 2026-05-04 07:52 | 57.68844 | 12.10737 | 8089 ft | 274 kts | 22° |
| 2026-05-04 07:52 | 57.70530 | 12.12383 | 7816 ft | 272 kts | 22° |
| 2026-05-04 07:52 | 57.72203 | 12.14022 | 7500 ft | 271 kts | 23° |
| 2026-05-04 07:53 | 57.73846 | 12.15638 | 7199 ft | 268 kts | 23° |
| 2026-05-04 07:54 | 57.85062 | 12.26967 | 4627 ft | 261 kts | 37° |
| 2026-05-04 07:55 | 57.86230 | 12.29573 | 4253 ft | 263 kts | 59° |
| 2026-05-04 07:55 | 57.86850 | 12.32819 | 3830 ft | 267 kts | 81° |
| 2026-05-04 07:55 | 57.86826 | 12.36292 | 3408 ft | 266 kts | 105° |
| 2026-05-04 07:55 | 57.86026 | 12.39307 | 3034 ft | 256 kts | 136° |
| 2026-05-04 07:56 | 57.84610 | 12.41080 | 2844 ft | 235 kts | 167° |
| 2026-05-04 07:56 | 57.83076 | 12.41517 | 2796 ft | 215 kts | 181° |
| 2026-05-04 07:56 | 57.81646 | 12.41607 | 2754 ft | 200 kts | 192° |
| 2026-05-04 07:56 | 57.80369 | 12.40871 | 2687 ft | 184 kts | 211° |
| 2026-05-04 07:57 | 57.79257 | 12.39852 | 2626 ft | 173 kts | 211° |
| 2026-05-04 07:57 | 57.78219 | 12.38899 | 2551 ft | 160 kts | 211° |
| 2026-05-04 07:57 | 57.77258 | 12.38019 | 2517 ft | 145 kts | 211° |
| 2026-05-04 07:57 | 57.76380 | 12.37214 | 2433 ft | 136 kts | 212° |
| 2026-05-04 07:58 | 57.75544 | 12.36446 | 2318 ft | 132 kts | 212° |
| 2026-05-04 07:58 | 57.74726 | 12.35696 | 2148 ft | 130 kts | 212° |
| 2026-05-04 07:58 | 57.73917 | 12.34954 | 1967 ft | 129 kts | 210° |
| 2026-05-04 07:58 | 57.73111 | 12.34216 | 1794 ft | 128 kts | 211° |
| 2026-05-04 07:59 | 57.72306 | 12.33479 | 1624 ft | 129 kts | 210° |
| 2026-05-04 07:59 | 57.71498 | 12.32741 | 1431 ft | 129 kts | 209° |
| 2026-05-04 07:59 | 57.70688 | 12.32000 | 1247 ft | 127 kts | 210° |
| 2026-05-04 07:59 | 57.69890 | 12.31271 | 1093 ft | 129 kts | 209° |
| 2026-05-04 08:00 | 57.69076 | 12.30533 | 893 ft | 129 kts | 209° |
| 2026-05-04 08:00 | 57.68272 | 12.29805 | 722 ft | 128 kts | 210° |
| 2026-05-04 08:00 | 57.67477 | 12.29073 | 532 ft | 126 kts | 209° |
| 2026-05-04 08:02 | 57.65717 | 12.27800 | 505 ft | 9 kts | 64° |
| 2026-05-04 08:02 | 57.65774 | 12.27862 | 506 ft | 10 kts | 25° |
| 2026-05-04 08:02 | 57.65845 | 12.27923 | 507 ft | 12 kts | 24° |
| 2026-05-04 08:03 | 57.65925 | 12.27997 | 507 ft | 14 kts | 27° |
| 2026-05-04 08:03 | 57.66017 | 12.28084 | 508 ft | 16 kts | 26° |
| 2026-05-04 08:03 | 57.66121 | 12.28180 | 509 ft | 18 kts | 25° |
| 2026-05-04 08:03 | 57.66238 | 12.28285 | 510 ft | 20 kts | 26° |
| 2026-05-04 08:04 | 57.66369 | 12.28403 | 511 ft | 22 kts | 26° |
| 2026-05-04 08:04 | 57.66512 | 12.28534 | 512 ft | 24 kts | 26° |
| 2026-05-04 08:04 | 57.66672 | 12.28680 | 512 ft | 26 kts | 26° |
| 2026-05-04 08:04 | 57.66781 | 12.28779 | 513 ft | 11 kts | 27° |
| 2026-05-04 08:05 | 57.66830 | 12.28848 | 513 ft | 8 kts | 67° |
| 2026-05-04 08:05 | 57.66822 | 12.28920 | 516 ft | 3 kts | 114° |
| 2026-05-04 08:05 | 57.66808 | 12.28973 | 516 ft | 6 kts | 116° |
| 2026-05-04 08:05 | 57.66787 | 12.29054 | 516 ft | 8 kts | 116° |
| 2026-05-04 08:06 | 57.66763 | 12.29138 | 516 ft | 7 kts | 120° |
| 2026-05-04 08:06 | 57.66745 | 12.29201 | 516 ft | 6 kts | 116° |
| 2026-05-04 08:06 | 57.66736 | 12.29234 | 516 ft | 2 kts | 116° |
| 2026-05-04 08:06 | 57.66730 | 12.29259 | 516 ft | 1 kts | 116° |